sensor_id;sensor_type;location;lat;lon;timestamp;pressure;altitude;pressure_sealevel;temperature;humidity
77583;BME280;66726;52.388;9.986;2023-05-20T00:01:54;101909.53;;;14.25;53.40
77583;BME280;66726;52.388;9.986;2023-05-20T00:04:28;101907.03;;;14.23;53.52
77583;BME280;66726;52.388;9.986;2023-05-20T00:07:01;101907.09;;;14.14;53.58
77583;BME280;66726;52.388;9.986;2023-05-20T00:09:36;101907.34;;;14.03;53.75
77583;BME280;66726;52.388;9.986;2023-05-20T00:12:11;101910.03;;;14.03;54.08
77583;BME280;66726;52.388;9.986;2023-05-20T00:14:44;101908.34;;;14.02;53.80
77583;BME280;66726;52.388;9.986;2023-05-20T00:17:17;101908.41;;;13.92;54.47
77583;BME280;66726;52.388;9.986;2023-05-20T00:19:51;101912.63;;;13.95;53.87
77583;BME280;66726;52.388;9.986;2023-05-20T00:22:25;101897.50;;;13.94;54.23
77583;BME280;66726;52.388;9.986;2023-05-20T00:24:58;101906.16;;;13.88;54.59
77583;BME280;66726;52.388;9.986;2023-05-20T00:27:31;101906.78;;;13.82;54.35
77583;BME280;66726;52.388;9.986;2023-05-20T00:30:05;101905.09;;;13.81;54.69
77583;BME280;66726;52.388;9.986;2023-05-20T00:32:39;101908.94;;;13.78;54.91
77583;BME280;66726;52.388;9.986;2023-05-20T00:35:12;101904.25;;;13.80;54.34
77583;BME280;66726;52.388;9.986;2023-05-20T00:37:46;101907.72;;;13.73;55.29
77583;BME280;66726;52.388;9.986;2023-05-20T00:40:19;101892.25;;;13.75;54.64
77583;BME280;66726;52.388;9.986;2023-05-20T00:42:54;101891.25;;;13.76;54.59
77583;BME280;66726;52.388;9.986;2023-05-20T00:45:27;101899.84;;;13.61;55.11
77583;BME280;66726;52.388;9.986;2023-05-20T00:48:01;101887.78;;;13.65;55.32
77583;BME280;66726;52.388;9.986;2023-05-20T00:50:37;101889.22;;;13.60;55.03
77583;BME280;66726;52.388;9.986;2023-05-20T00:53:11;101890.69;;;13.54;55.18
77583;BME280;66726;52.388;9.986;2023-05-20T00:55:45;101896.03;;;13.37;55.64
77583;BME280;66726;52.388;9.986;2023-05-20T00:58:18;101893.75;;;13.42;56.06
77583;BME280;66726;52.388;9.986;2023-05-20T01:00:52;101891.50;;;13.37;55.72
77583;BME280;66726;52.388;9.986;2023-05-20T01:03:26;101888.13;;;13.35;56.21
77583;BME280;66726;52.388;9.986;2023-05-20T01:06:00;101895.78;;;13.30;56.64
77583;BME280;66726;52.388;9.986;2023-05-20T01:08:35;101889.44;;;13.31;56.28
77583;BME280;66726;52.388;9.986;2023-05-20T01:11:14;101893.72;;;13.24;56.10
77583;BME280;66726;52.388;9.986;2023-05-20T01:13:56;101889.94;;;13.07;56.99
77583;BME280;66726;52.388;9.986;2023-05-20T01:16:32;101896.75;;;13.02;56.83
77583;BME280;66726;52.388;9.986;2023-05-20T01:19:29;101892.75;;;13.06;56.94
77583;BME280;66726;52.388;9.986;2023-05-20T01:22:10;101886.41;;;13.07;56.21
77583;BME280;66726;52.388;9.986;2023-05-20T01:24:46;101894.19;;;13.10;55.86
77583;BME280;66726;52.388;9.986;2023-05-20T01:27:21;101897.50;;;12.94;55.81
77583;BME280;66726;52.388;9.986;2023-05-20T01:29:55;101896.53;;;12.86;56.09
77583;BME280;66726;52.388;9.986;2023-05-20T01:32:33;101889.69;;;13.01;56.52
77583;BME280;66726;52.388;9.986;2023-05-20T01:35:12;101882.38;;;12.93;56.80
77583;BME280;66726;52.388;9.986;2023-05-20T01:37:47;101877.59;;;12.87;56.91
77583;BME280;66726;52.388;9.986;2023-05-20T01:40:22;101879.84;;;12.82;56.96
77583;BME280;66726;52.388;9.986;2023-05-20T01:42:57;101875.47;;;12.81;57.44
77583;BME280;66726;52.388;9.986;2023-05-20T01:45:31;101874.25;;;12.66;56.79
77583;BME280;66726;52.388;9.986;2023-05-20T01:48:07;101876.69;;;12.59;56.30
77583;BME280;66726;52.388;9.986;2023-05-20T01:50:41;101875.97;;;12.57;57.04
77583;BME280;66726;52.388;9.986;2023-05-20T01:53:14;101875.41;;;12.63;56.79
77583;BME280;66726;52.388;9.986;2023-05-20T01:55:47;101877.38;;;12.61;57.08
77583;BME280;66726;52.388;9.986;2023-05-20T01:58:20;101870.31;;;12.60;57.53
77583;BME280;66726;52.388;9.986;2023-05-20T02:00:54;101873.63;;;12.35;56.83
77583;BME280;66726;52.388;9.986;2023-05-20T02:03:27;101869.09;;;12.45;56.41
77583;BME280;66726;52.388;9.986;2023-05-20T02:06:01;101871.34;;;12.50;56.75
77583;BME280;66726;52.388;9.986;2023-05-20T02:08:34;101867.66;;;12.51;57.13
77583;BME280;66726;52.388;9.986;2023-05-20T02:11:08;101862.44;;;12.49;56.52
77583;BME280;66726;52.388;9.986;2023-05-20T02:13:41;101861.72;;;12.47;56.84
77583;BME280;66726;52.388;9.986;2023-05-20T02:16:14;101861.03;;;12.45;57.76
77583;BME280;66726;52.388;9.986;2023-05-20T02:18:48;101862.88;;;12.45;57.47
77583;BME280;66726;52.388;9.986;2023-05-20T02:21:22;101863.88;;;12.34;56.99
77583;BME280;66726;52.388;9.986;2023-05-20T02:23:55;101866.00;;;12.31;56.97
77583;BME280;66726;52.388;9.986;2023-05-20T02:26:28;101866.97;;;12.30;57.22
77583;BME280;66726;52.388;9.986;2023-05-20T02:29:02;101859.94;;;12.29;57.69
77583;BME280;66726;52.388;9.986;2023-05-20T02:31:36;101862.47;;;12.30;57.69
77583;BME280;66726;52.388;9.986;2023-05-20T02:34:09;101867.84;;;12.30;57.56
77583;BME280;66726;52.388;9.986;2023-05-20T02:36:42;101861.59;;;12.30;57.47
77583;BME280;66726;52.388;9.986;2023-05-20T02:39:16;101866.72;;;12.23;58.19
77583;BME280;66726;52.388;9.986;2023-05-20T02:41:49;101866.72;;;12.23;58.16
77583;BME280;66726;52.388;9.986;2023-05-20T02:44:22;101872.69;;;12.07;57.85
77583;BME280;66726;52.388;9.986;2023-05-20T02:46:56;101876.91;;;12.10;57.77
77583;BME280;66726;52.388;9.986;2023-05-20T02:49:29;101874.09;;;12.02;58.77
77583;BME280;66726;52.388;9.986;2023-05-20T02:52:02;101879.47;;;12.02;58.34
77583;BME280;66726;52.388;9.986;2023-05-20T02:54:37;101870.56;;;12.01;57.70
77583;BME280;66726;52.388;9.986;2023-05-20T02:57:10;101874.09;;;12.02;58.37
77583;BME280;66726;52.388;9.986;2023-05-20T02:59:44;101864.19;;;12.02;57.86
77583;BME280;66726;52.388;9.986;2023-05-20T03:02:17;101858.00;;;12.02;57.95
77583;BME280;66726;52.388;9.986;2023-05-20T03:04:50;101868.72;;;12.02;57.92
77583;BME280;66726;52.388;9.986;2023-05-20T03:07:25;101865.19;;;11.92;58.40
77583;BME280;66726;52.388;9.986;2023-05-20T03:09:58;101866.59;;;11.96;58.27
77583;BME280;66726;52.388;9.986;2023-05-20T03:12:34;101862.50;;;12.01;58.48
77583;BME280;66726;52.388;9.986;2023-05-20T03:15:09;101862.50;;;11.92;58.75
77583;BME280;66726;52.388;9.986;2023-05-20T03:17:43;101865.91;;;11.84;58.71
77583;BME280;66726;52.388;9.986;2023-05-20T03:20:18;101867.88;;;11.73;59.32
77583;BME280;66726;52.388;9.986;2023-05-20T03:22:52;101874.38;;;11.80;60.19
77583;BME280;66726;52.388;9.986;2023-05-20T03:25:26;101866.72;;;11.75;59.14
77583;BME280;66726;52.388;9.986;2023-05-20T03:27:59;101865.06;;;11.74;59.31
77583;BME280;66726;52.388;9.986;2023-05-20T03:30:33;101865.19;;;11.73;59.42
77583;BME280;66726;52.388;9.986;2023-05-20T03:33:06;101861.94;;;11.79;59.65
77583;BME280;66726;52.388;9.986;2023-05-20T03:35:40;101868.03;;;11.81;58.75
77583;BME280;66726;52.388;9.986;2023-05-20T03:38:13;101874.09;;;11.83;59.34
77583;BME280;66726;52.388;9.986;2023-05-20T03:40:47;101865.47;;;11.89;59.31
77583;BME280;66726;52.388;9.986;2023-05-20T03:43:21;101874.50;;;11.78;59.36
77583;BME280;66726;52.388;9.986;2023-05-20T03:45:54;101874.66;;;11.77;59.27
77583;BME280;66726;52.388;9.986;2023-05-20T03:48:27;101872.53;;;11.80;59.77
77583;BME280;66726;52.388;9.986;2023-05-20T03:51:01;101867.31;;;11.79;58.92
77583;BME280;66726;52.388;9.986;2023-05-20T03:53:34;101879.84;;;11.68;60.04
77583;BME280;66726;52.388;9.986;2023-05-20T03:56:08;101883.38;;;11.69;59.08
77583;BME280;66726;52.388;9.986;2023-05-20T03:58:41;101883.66;;;11.66;60.26
77583;BME280;66726;52.388;9.986;2023-05-20T04:01:15;101886.91;;;11.69;60.15
77583;BME280;66726;52.388;9.986;2023-05-20T04:03:49;101886.47;;;11.64;60.09
77583;BME280;66726;52.388;9.986;2023-05-20T04:06:22;101886.59;;;11.53;60.14
77583;BME280;66726;52.388;9.986;2023-05-20T04:08:56;101893.94;;;11.61;60.12
77583;BME280;66726;52.388;9.986;2023-05-20T04:11:29;101894.50;;;11.64;60.03
77583;BME280;66726;52.388;9.986;2023-05-20T04:14:02;101893.53;;;11.65;60.95
77583;BME280;66726;52.388;9.986;2023-05-20T04:16:35;101899.75;;;11.66;60.31
77583;BME280;66726;52.388;9.986;2023-05-20T04:19:10;101889.59;;;11.69;59.70
77583;BME280;66726;52.388;9.986;2023-05-20T04:21:46;101883.66;;;11.66;60.47
77583;BME280;66726;52.388;9.986;2023-05-20T04:24:19;101880.97;;;11.66;60.46
77583;BME280;66726;52.388;9.986;2023-05-20T04:26:56;101875.22;;;11.71;60.22
77583;BME280;66726;52.388;9.986;2023-05-20T04:29:30;101880.69;;;11.59;60.38
77583;BME280;66726;52.388;9.986;2023-05-20T04:32:06;101883.78;;;11.64;60.90
77583;BME280;66726;52.388;9.986;2023-05-20T04:34:42;101884.22;;;11.69;60.98
77583;BME280;66726;52.388;9.986;2023-05-20T04:37:16;101882.09;;;11.63;61.30
77583;BME280;66726;52.388;9.986;2023-05-20T04:39:50;101876.56;;;11.65;61.25
77583;BME280;66726;52.388;9.986;2023-05-20T04:42:23;101874.75;;;11.56;61.49
77583;BME280;66726;52.388;9.986;2023-05-20T04:44:57;101869.25;;;11.57;62.05
77583;BME280;66726;52.388;9.986;2023-05-20T04:47:32;101878.28;;;11.56;61.66
77583;BME280;66726;52.388;9.986;2023-05-20T04:50:12;101861.06;;;11.59;61.87
77583;BME280;66726;52.388;9.986;2023-05-20T04:52:46;101871.22;;;11.55;62.20
77583;BME280;66726;52.388;9.986;2023-05-20T04:55:20;101866.97;;;11.62;61.77
77583;BME280;66726;52.388;9.986;2023-05-20T04:57:56;101862.47;;;11.63;62.74
77583;BME280;66726;52.388;9.986;2023-05-20T05:00:29;101864.75;;;11.67;62.11
77583;BME280;66726;52.388;9.986;2023-05-20T05:03:02;101870.09;;;11.67;62.58
77583;BME280;66726;52.388;9.986;2023-05-20T05:05:37;101864.50;;;11.71;62.30
77583;BME280;66726;52.388;9.986;2023-05-20T05:08:12;101862.31;;;11.64;62.93
77583;BME280;66726;52.388;9.986;2023-05-20T05:10:45;101863.75;;;11.68;63.20
77583;BME280;66726;52.388;9.986;2023-05-20T05:13:19;101859.63;;;11.64;63.39
77583;BME280;66726;52.388;9.986;2023-05-20T05:16:00;101862.50;;;11.73;63.15
77583;BME280;66726;52.388;9.986;2023-05-20T05:18:34;101864.63;;;11.79;63.46
77583;BME280;66726;52.388;9.986;2023-05-20T05:21:10;101861.41;;;11.85;63.36
77583;BME280;66726;52.388;9.986;2023-05-20T05:23:43;101863.34;;;11.92;63.39
77583;BME280;66726;52.388;9.986;2023-05-20T05:26:17;101858.81;;;12.02;62.85
77583;BME280;66726;52.388;9.986;2023-05-20T05:28:50;101862.78;;;12.08;63.46
77583;BME280;66726;52.388;9.986;2023-05-20T05:31:23;101855.44;;;12.10;63.48
77583;BME280;66726;52.388;9.986;2023-05-20T05:33:57;101858.69;;;12.13;63.58
77583;BME280;66726;52.388;9.986;2023-05-20T05:36:33;101849.06;;;12.20;62.05
77583;BME280;66726;52.388;9.986;2023-05-20T05:39:06;101850.06;;;12.29;63.62
77583;BME280;66726;52.388;9.986;2023-05-20T05:41:40;101856.78;;;12.33;63.56
77583;BME280;66726;52.388;9.986;2023-05-20T05:44:13;101849.16;;;12.38;63.27
77583;BME280;66726;52.388;9.986;2023-05-20T05:46:46;101843.63;;;12.40;63.13
77583;BME280;66726;52.388;9.986;2023-05-20T05:49:20;101861.88;;;12.46;64.13
77583;BME280;66726;52.388;9.986;2023-05-20T05:51:54;101856.22;;;12.49;63.29
77583;BME280;66726;52.388;9.986;2023-05-20T05:54:28;101850.53;;;12.52;63.49
77583;BME280;66726;52.388;9.986;2023-05-20T05:57:01;101860.88;;;12.56;63.82
77583;BME280;66726;52.388;9.986;2023-05-20T05:59:37;101862.97;;;12.62;63.87
77583;BME280;66726;52.388;9.986;2023-05-20T06:02:10;101861.81;;;12.65;63.88
77583;BME280;66726;52.388;9.986;2023-05-20T06:04:45;101857.53;;;12.72;63.58
77583;BME280;66726;52.388;9.986;2023-05-20T06:07:19;101859.50;;;12.80;64.44
77583;BME280;66726;52.388;9.986;2023-05-20T06:09:52;101854.94;;;12.90;64.70
77583;BME280;66726;52.388;9.986;2023-05-20T06:12:26;101859.41;;;12.99;64.08
77583;BME280;66726;52.388;9.986;2023-05-20T06:15:00;101851.75;;;13.04;63.41
77583;BME280;66726;52.388;9.986;2023-05-20T06:17:33;101866.31;;;13.11;63.74
77583;BME280;66726;52.388;9.986;2023-05-20T06:20:08;101853.69;;;13.21;63.38
77583;BME280;66726;52.388;9.986;2023-05-20T06:22:42;101851.38;;;13.26;62.94
77583;BME280;66726;52.388;9.986;2023-05-20T06:25:16;101863.22;;;13.33;62.27
77583;BME280;66726;52.388;9.986;2023-05-20T06:27:50;101856.13;;;13.32;62.34
77583;BME280;66726;52.388;9.986;2023-05-20T06:30:23;101861.47;;;13.42;62.40
77583;BME280;66726;52.388;9.986;2023-05-20T06:32:57;101861.94;;;13.55;62.62
77583;BME280;66726;52.388;9.986;2023-05-20T06:35:30;101860.16;;;13.63;62.33
77583;BME280;66726;52.388;9.986;2023-05-20T06:38:06;101851.28;;;13.63;61.75
77583;BME280;66726;52.388;9.986;2023-05-20T06:40:39;101861.97;;;13.73;61.88
77583;BME280;66726;52.388;9.986;2023-05-20T06:43:13;101859.03;;;13.84;61.41
77583;BME280;66726;52.388;9.986;2023-05-20T06:45:46;101855.72;;;13.90;61.56
77583;BME280;66726;52.388;9.986;2023-05-20T06:48:19;101859.31;;;13.98;61.79
77583;BME280;66726;52.388;9.986;2023-05-20T06:50:53;101849.94;;;14.02;61.14
77583;BME280;66726;52.388;9.986;2023-05-20T06:53:26;101848.78;;;14.05;61.66
77583;BME280;66726;52.388;9.986;2023-05-20T06:56:02;101851.88;;;14.10;61.21
77583;BME280;66726;52.388;9.986;2023-05-20T06:58:35;101843.00;;;14.17;60.61
77583;BME280;66726;52.388;9.986;2023-05-20T07:01:09;101843.22;;;14.24;60.12
77583;BME280;66726;52.388;9.986;2023-05-20T07:03:42;101846.28;;;14.29;59.96
77583;BME280;66726;52.388;9.986;2023-05-20T07:06:15;101846.81;;;14.33;59.94
77583;BME280;66726;52.388;9.986;2023-05-20T07:08:49;101837.75;;;14.34;59.35
77583;BME280;66726;52.388;9.986;2023-05-20T07:11:22;101842.50;;;14.40;59.48
77583;BME280;66726;52.388;9.986;2023-05-20T07:13:55;101842.41;;;14.49;59.63
77583;BME280;66726;52.388;9.986;2023-05-20T07:16:29;101843.44;;;14.56;59.44
77583;BME280;66726;52.388;9.986;2023-05-20T07:19:03;101836.59;;;14.62;59.65
77583;BME280;66726;52.388;9.986;2023-05-20T07:21:37;101827.00;;;14.67;58.91
77583;BME280;66726;52.388;9.986;2023-05-20T07:24:11;101837.00;;;14.75;59.05
77583;BME280;66726;52.388;9.986;2023-05-20T07:26:45;101825.56;;;14.81;58.56
77583;BME280;66726;52.388;9.986;2023-05-20T07:29:18;101838.56;;;14.86;58.64
77583;BME280;66726;52.388;9.986;2023-05-20T07:31:52;101826.63;;;14.88;57.65
77583;BME280;66726;52.388;9.986;2023-05-20T07:34:26;101822.09;;;14.97;57.52
77583;BME280;66726;52.388;9.986;2023-05-20T07:37:00;101819.91;;;15.00;57.30
77583;BME280;66726;52.388;9.986;2023-05-20T07:39:33;101819.78;;;15.10;57.00
77583;BME280;66726;52.388;9.986;2023-05-20T07:42:07;101818.63;;;15.12;56.77
77583;BME280;66726;52.388;9.986;2023-05-20T07:44:41;101821.13;;;15.14;56.27
77583;BME280;66726;52.388;9.986;2023-05-20T07:47:16;101826.19;;;15.09;56.57
77583;BME280;66726;52.388;9.986;2023-05-20T07:49:49;101822.78;;;15.07;57.54
77583;BME280;66726;52.388;9.986;2023-05-20T07:52:22;101817.91;;;15.10;56.72
77583;BME280;66726;52.388;9.986;2023-05-20T07:54:56;101819.47;;;15.13;56.04
77583;BME280;66726;52.388;9.986;2023-05-20T07:57:29;101817.94;;;15.18;56.70
77583;BME280;66726;52.388;9.986;2023-05-20T08:00:02;101813.44;;;15.27;55.98
77583;BME280;66726;52.388;9.986;2023-05-20T08:02:37;101800.97;;;15.34;56.66
77583;BME280;66726;52.388;9.986;2023-05-20T08:05:12;101808.38;;;15.32;55.64
77583;BME280;66726;52.388;9.986;2023-05-20T08:07:45;101801.16;;;15.41;55.69
77583;BME280;66726;52.388;9.986;2023-05-20T08:10:19;101800.50;;;15.47;55.90
77583;BME280;66726;52.388;9.986;2023-05-20T08:12:52;101798.84;;;15.54;57.12
77583;BME280;66726;52.388;9.986;2023-05-20T08:15:25;101813.53;;;15.59;55.54
77583;BME280;66726;52.388;9.986;2023-05-20T08:17:59;101800.72;;;15.61;54.55
77583;BME280;66726;52.388;9.986;2023-05-20T08:20:32;101799.50;;;15.72;55.11
77583;BME280;66726;52.388;9.986;2023-05-20T08:23:06;101794.13;;;15.80;55.04
77583;BME280;66726;52.388;9.986;2023-05-20T08:25:39;101783.50;;;15.95;55.99
77583;BME280;66726;52.388;9.986;2023-05-20T08:28:13;101791.75;;;16.01;55.84
77583;BME280;66726;52.388;9.986;2023-05-20T08:30:46;101796.66;;;16.06;56.50
77583;BME280;66726;52.388;9.986;2023-05-20T08:33:20;101797.31;;;16.08;55.04
77583;BME280;66726;52.388;9.986;2023-05-20T08:35:53;101796.66;;;16.06;54.49
77583;BME280;66726;52.388;9.986;2023-05-20T08:38:27;101792.59;;;16.10;54.42
77583;BME280;66726;52.388;9.986;2023-05-20T08:41:00;101791.22;;;16.22;54.08
77583;BME280;66726;52.388;9.986;2023-05-20T08:43:35;101782.94;;;16.23;54.23
77583;BME280;66726;52.388;9.986;2023-05-20T08:46:11;101783.59;;;16.34;53.73
77583;BME280;66726;52.388;9.986;2023-05-20T08:48:46;101782.22;;;16.38;54.48
77583;BME280;66726;52.388;9.986;2023-05-20T08:51:25;101785.97;;;16.29;53.92
77583;BME280;66726;52.388;9.986;2023-05-20T08:54:01;101785.13;;;16.28;53.09
77583;BME280;66726;52.388;9.986;2023-05-20T08:56:34;101779.72;;;16.28;53.76
77583;BME280;66726;52.388;9.986;2023-05-20T08:59:09;101782.44;;;16.28;53.62
77583;BME280;66726;52.388;9.986;2023-05-20T09:01:44;101775.97;;;16.37;54.12
77583;BME280;66726;52.388;9.986;2023-05-20T09:04:18;101775.13;;;16.45;54.20
77583;BME280;66726;52.388;9.986;2023-05-20T09:06:54;101783.44;;;16.27;53.89
77583;BME280;66726;52.388;9.986;2023-05-20T09:09:27;101788.19;;;16.33;53.50
77583;BME280;66726;52.388;9.986;2023-05-20T09:12:02;101785.13;;;16.36;53.57
77583;BME280;66726;52.388;9.986;2023-05-20T09:14:36;101792.19;;;16.37;53.78
77583;BME280;66726;52.388;9.986;2023-05-20T09:17:11;101781.88;;;16.41;52.88
77583;BME280;66726;52.388;9.986;2023-05-20T09:19:44;101789.00;;;16.42;53.36
77583;BME280;66726;52.388;9.986;2023-05-20T09:22:25;101787.13;;;16.42;53.62
77583;BME280;66726;52.388;9.986;2023-05-20T09:24:59;101787.63;;;16.38;54.00
77583;BME280;66726;52.388;9.986;2023-05-20T09:27:32;101794.19;;;16.51;53.84
77583;BME280;66726;52.388;9.986;2023-05-20T09:30:10;101795.41;;;16.57;52.86
77583;BME280;66726;52.388;9.986;2023-05-20T09:32:45;101791.81;;;16.64;53.31
77583;BME280;66726;52.388;9.986;2023-05-20T09:35:20;101785.41;;;16.65;52.17
77583;BME280;66726;52.388;9.986;2023-05-20T09:37:56;101784.81;;;16.78;52.51
77583;BME280;66726;52.388;9.986;2023-05-20T09:40:30;101776.41;;;16.81;52.32
77583;BME280;66726;52.388;9.986;2023-05-20T09:43:06;101776.88;;;16.85;52.39
77583;BME280;66726;52.388;9.986;2023-05-20T09:45:40;101769.69;;;17.00;52.33
77583;BME280;66726;52.388;9.986;2023-05-20T09:48:14;101777.19;;;16.90;51.80
77583;BME280;66726;52.388;9.986;2023-05-20T09:50:49;101760.94;;;16.98;51.57
77583;BME280;66726;52.388;9.986;2023-05-20T09:53:27;101762.25;;;17.02;52.04
77583;BME280;66726;52.388;9.986;2023-05-20T09:56:01;101767.22;;;16.90;52.02
77583;BME280;66726;52.388;9.986;2023-05-20T09:58:37;101773.13;;;16.86;52.51
77583;BME280;66726;52.388;9.986;2023-05-20T10:01:11;101762.94;;;16.96;52.89
77583;BME280;66726;52.388;9.986;2023-05-20T10:03:45;101770.69;;;16.99;53.75
77583;BME280;66726;52.388;9.986;2023-05-20T10:06:40;101777.03;;;16.91;52.40
77583;BME280;66726;52.388;9.986;2023-05-20T10:09:35;101777.38;;;16.88;52.94
77583;BME280;66726;52.388;9.986;2023-05-20T10:12:23;101767.47;;;17.03;52.60
77583;BME280;66726;52.388;9.986;2023-05-20T10:15:15;101770.94;;;17.20;52.65
77583;BME280;66726;52.388;9.986;2023-05-20T10:18:01;101766.84;;;17.24;53.34
77583;BME280;66726;52.388;9.986;2023-05-20T10:20:48;101765.22;;;17.15;52.51
77583;BME280;66726;52.388;9.986;2023-05-20T10:23:30;101759.56;;;17.02;52.52
77583;BME280;66726;52.388;9.986;2023-05-20T10:26:09;101755.03;;;16.94;53.00
77583;BME280;66726;52.388;9.986;2023-05-20T10:28:45;101760.94;;;16.98;53.11
77583;BME280;66726;52.388;9.986;2023-05-20T10:31:24;101763.06;;;17.02;52.91
77583;BME280;66726;52.388;9.986;2023-05-20T10:34:01;101760.09;;;17.20;52.80
77583;BME280;66726;52.388;9.986;2023-05-20T10:36:35;101756.88;;;17.24;52.10
77583;BME280;66726;52.388;9.986;2023-05-20T10:39:15;101755.16;;;17.23;52.50
77583;BME280;66726;52.388;9.986;2023-05-20T10:41:49;101757.31;;;17.36;52.08
77583;BME280;66726;52.388;9.986;2023-05-20T10:44:23;101757.22;;;17.44;51.89
77583;BME280;66726;52.388;9.986;2023-05-20T10:47:07;101741.97;;;17.29;52.05
77583;BME280;66726;52.388;9.986;2023-05-20T10:49:57;101749.44;;;17.49;52.97
77583;BME280;66726;52.388;9.986;2023-05-20T10:52:37;101748.03;;;17.53;52.49
77583;BME280;66726;52.388;9.986;2023-05-20T10:55:23;101743.44;;;17.62;52.88
77583;BME280;66726;52.388;9.986;2023-05-20T10:57:56;101732.13;;;17.58;52.59
77583;BME280;66726;52.388;9.986;2023-05-20T11:00:30;101743.91;;;17.65;52.84
77583;BME280;66726;52.388;9.986;2023-05-20T11:03:05;101736.78;;;17.64;53.19
77583;BME280;66726;52.388;9.986;2023-05-20T11:05:39;101744.44;;;17.61;52.52
77583;BME280;66726;52.388;9.986;2023-05-20T11:08:13;101743.97;;;17.57;52.56
77583;BME280;66726;52.388;9.986;2023-05-20T11:11:00;101742.09;;;17.58;52.57
77583;BME280;66726;52.388;9.986;2023-05-20T11:13:33;101740.34;;;17.65;52.90
77583;BME280;66726;52.388;9.986;2023-05-20T11:16:08;101736.16;;;17.62;52.32
77583;BME280;66726;52.388;9.986;2023-05-20T11:18:42;101742.94;;;17.58;52.99
77583;BME280;66726;52.388;9.986;2023-05-20T11:21:16;101746.50;;;17.59;52.96
77583;BME280;66726;52.388;9.986;2023-05-20T11:23:52;101733.34;;;17.48;52.20
77583;BME280;66726;52.388;9.986;2023-05-20T11:26:25;101734.19;;;17.48;52.37
77583;BME280;66726;52.388;9.986;2023-05-20T11:29:01;101726.06;;;17.48;53.09
77583;BME280;66726;52.388;9.986;2023-05-20T11:31:38;101716.88;;;17.57;52.98
77583;BME280;66726;52.388;9.986;2023-05-20T11:34:12;101715.41;;;17.47;52.54
77583;BME280;66726;52.388;9.986;2023-05-20T11:36:46;101710.78;;;17.55;53.22
77583;BME280;66726;52.388;9.986;2023-05-20T11:39:21;101705.75;;;17.52;53.25
77583;BME280;66726;52.388;9.986;2023-05-20T11:41:55;101704.78;;;17.68;52.97
77583;BME280;66726;52.388;9.986;2023-05-20T11:44:29;101705.63;;;17.68;53.01
77583;BME280;66726;52.388;9.986;2023-05-20T11:47:05;101698.53;;;17.82;52.57
77583;BME280;66726;52.388;9.986;2023-05-20T11:49:46;101703.78;;;17.84;52.06
77583;BME280;66726;52.388;9.986;2023-05-20T11:52:20;101698.47;;;17.90;52.08
77583;BME280;66726;52.388;9.986;2023-05-20T11:54:55;101693.53;;;17.94;52.19
77583;BME280;66726;52.388;9.986;2023-05-20T11:57:29;101686.34;;;18.01;51.77
77583;BME280;66726;52.388;9.986;2023-05-20T12:00:02;101698.56;;;17.97;51.85
77583;BME280;66726;52.388;9.986;2023-05-20T12:02:38;101684.00;;;17.98;51.63
77583;BME280;66726;52.388;9.986;2023-05-20T12:05:12;101688.13;;;17.94;51.49
77583;BME280;66726;52.388;9.986;2023-05-20T12:07:46;101680.56;;;18.04;51.97
77583;BME280;66726;52.388;9.986;2023-05-20T12:10:20;101672.03;;;17.92;51.58
77583;BME280;66726;52.388;9.986;2023-05-20T12:12:53;101678.94;;;17.95;52.38
77583;BME280;66726;52.388;9.986;2023-05-20T12:15:27;101661.41;;;17.91;52.20
77583;BME280;66726;52.388;9.986;2023-05-20T12:18:00;101665.84;;;17.98;52.64
77583;BME280;66726;52.388;9.986;2023-05-20T12:20:33;101661.28;;;18.13;52.09
77583;BME280;66726;52.388;9.986;2023-05-20T12:23:08;101660.81;;;18.10;51.82
77583;BME280;66726;52.388;9.986;2023-05-20T12:25:41;101659.22;;;18.15;51.77
77583;BME280;66726;52.388;9.986;2023-05-20T12:28:16;101659.88;;;18.03;51.42
77583;BME280;66726;52.388;9.986;2023-05-20T12:30:50;101662.53;;;18.11;51.48
77583;BME280;66726;52.388;9.986;2023-05-20T12:33:24;101670.06;;;18.15;51.71
77583;BME280;66726;52.388;9.986;2023-05-20T12:35:58;101657.94;;;17.97;52.50
77583;BME280;66726;52.388;9.986;2023-05-20T12:38:32;101655.22;;;17.97;52.30
77583;BME280;66726;52.388;9.986;2023-05-20T12:41:05;101646.44;;;18.09;52.64
77583;BME280;66726;52.388;9.986;2023-05-20T12:43:38;101651.84;;;18.24;51.86
77583;BME280;66726;52.388;9.986;2023-05-20T12:46:12;101646.69;;;18.29;51.22
77583;BME280;66726;52.388;9.986;2023-05-20T12:48:45;101629.78;;;18.27;51.23
77583;BME280;66726;52.388;9.986;2023-05-20T12:51:18;101630.03;;;18.47;50.72
77583;BME280;66726;52.388;9.986;2023-05-20T12:53:52;101628.78;;;18.49;50.45
77583;BME280;66726;52.388;9.986;2023-05-20T12:56:25;101631.63;;;18.41;50.33
77583;BME280;66726;52.388;9.986;2023-05-20T12:58:59;101622.28;;;18.58;50.72
77583;BME280;66726;52.388;9.986;2023-05-20T13:01:33;101629.00;;;18.62;50.70
77583;BME280;66726;52.388;9.986;2023-05-20T13:04:08;101620.88;;;18.33;50.67
77583;BME280;66726;52.388;9.986;2023-05-20T13:06:43;101623.22;;;18.36;51.62
77583;BME280;66726;52.388;9.986;2023-05-20T13:09:16;101624.31;;;18.56;51.45
77583;BME280;66726;52.388;9.986;2023-05-20T13:11:50;101621.13;;;18.67;50.63
77583;BME280;66726;52.388;9.986;2023-05-20T13:14:23;101621.97;;;18.68;50.48
77583;BME280;66726;52.388;9.986;2023-05-20T13:16:56;101629.84;;;18.63;50.37
77583;BME280;66726;52.388;9.986;2023-05-20T13:19:30;101621.91;;;18.61;50.30
77583;BME280;66726;52.388;9.986;2023-05-20T13:22:05;101626.69;;;18.81;51.09
77583;BME280;66726;52.388;9.986;2023-05-20T13:24:40;101623.28;;;18.72;50.48
77583;BME280;66726;52.388;9.986;2023-05-20T13:27:14;101623.69;;;18.54;50.38
77583;BME280;66726;52.388;9.986;2023-05-20T13:29:47;101615.38;;;18.41;50.77